• Join FlightAware (Why Join?)
  • Login
  • US Flag 
01:31PM EDT


 

Airport Tracker/Info


-or-


 

Live Flight TrackerFlight Track Log ✈ EJA831 ✈ 11-Dec-2013 ✈ KLAS - KADS

Flight Track Log - Related Links

Times and Time Zones

All times are in EST time to prevent confusion due to time zone crossing. See the EJA831 flight status page for this flight to view local times or setup timezone preferences in your user account.

Time Position Orientation Groundspeed Altitude Reporting Facility
EST Latitude Longitude Course Direction KTS MPH feet Rate Location/Type
01:03PM 36.0661 -115.1714 209° Southwest 200 230 3,400  Level Los Angeles Center
01:04PM 36.0508 -115.1817 209° Southwest 204 235 4,300 3,240 Climbing Los Angeles Center
01:04PM 36.0350 -115.1894 202° Southwest 211 243 5,400 2,640 Climbing Los Angeles Center
01:05PM 35.9972 -115.2419 228° Southwest 271 312 7,000 1,500 Climbing Los Angeles Center
01:05PM 35.9864 -115.2667 242° Southwest 271 312 7,000 780 Level Los Angeles Center
01:06PM 35.9189 -115.2814 190° South 264 304 8,100 2,280 Climbing Los Angeles Center
01:07PM 35.8578 -115.2203 141° Southeast 286 329 11,800 3,300 Climbing Los Angeles Center
01:08PM 35.8347 -115.1247 107° East 294 338 15,000 2,700 Climbing Los Angeles Center
01:09PM 35.8278 -115.0067 94° East 334 384 17,400 2,280 Climbing Los Angeles Center
01:10PM 35.8386 -114.8861 84° East 347 399 19,800 2,160 Climbing Los Angeles Center
01:11PM 35.8486 -114.7653 84° East 353 406 22,000 1,980 Climbing Los Angeles Center
01:12PM 35.8597 -114.6436 84° East 356 410 24,000 1,740 Climbing Los Angeles Center
01:13PM 35.8708 -114.5203 84° East 361 415 25,700 1,500 Climbing Los Angeles Center
01:14PM 35.8817 -114.3931 84° East 369 425 27,100 1,320 Climbing Los Angeles Center
01:15PM 35.8875 -114.2356 87° East 381 438 28,500 1,380 Climbing Los Angeles Center
01:17PM 35.8692 -114.1031 100° East 390 449 30,000 1,440 Climbing Los Angeles Center
01:18PM 35.8550 -113.9725 98° East 387 445 31,500 1,380 Climbing Los Angeles Center
01:19PM 35.8403 -113.8433 98° East 382 440 32,900 1,260 Climbing Los Angeles Center
01:20PM 35.8242 -113.7122 99° East 386 444 34,200 1,320 Climbing Los Angeles Center
01:21PM 35.8083 -113.5719 98° East 386 444 35,700 1,140 Climbing Los Angeles Center
01:22PM 35.7914 -113.4431 99° East 382 440 36,600 900 Climbing Los Angeles Center
01:23PM 35.7764 -113.3106 98° East 388 447 37,600 960 Climbing Los Angeles Center
01:24PM 35.7561 -113.1511 99° East 391 450 38,600 660 Climbing Los Angeles Center
01:25PM 35.7392 -113.0156 99° East 396 456 39,000 180 Climbing Los Angeles Center
01:26PM 35.7228 -112.8764 98° East 404 465 39,000 300 Level Los Angeles Center
01:27PM 35.7044 -112.7339 99° East 414 476 39,700 720 Climbing Los Angeles Center
01:28PM 35.6861 -112.5950 99° East 412 474 40,500 600 Climbing Los Angeles Center
01:29PM 35.6664 -112.4581 100° East 409 471 41,000 240 Climbing Los Angeles Center
01:30PM 35.6489 -112.3169 99° East 413 475 41,000  Level Los Angeles Center
01:31PM 35.6261 -112.1461 99° East 420 483 41,000  Level Los Angeles Center
01:32PM 35.6053 -111.9989 100° East 432 497 41,000  Level Los Angeles Center
01:33PM 35.5889 -111.8497 98° East 440 506 41,000  Level Albuquerque Center
01:34PM 35.5858 -111.6986 91° East 442 509 41,000  Level Albuquerque Center
01:35PM 35.5817 -111.5475 92° East 445 512 41,000  Level Albuquerque Center
01:36PM 35.5775 -111.3772 92° East 447 514 41,000  Level Albuquerque Center
01:37PM 35.5639 -111.2322 97° East 447 514 41,000  Level Albuquerque Center
01:38PM 35.5478 -111.0631 97° East 446 513 41,000  Level Albuquerque Center
01:39PM 35.5339 -110.9183 97° East 446 513 41,000  Level Albuquerque Center
01:40PM 35.5178 -110.7486 97° East 448 516 41,000  Level Albuquerque Center
01:41PM 35.5039 -110.6025 97° East 450 518 41,000  Level Albuquerque Center
01:42PM 35.4883 -110.4336 96° East 449 517 41,000  Level Albuquerque Center
01:43PM 35.4739 -110.2892 97° East 447 514 41,000  Level Albuquerque Center
01:44PM 35.4578 -110.1194 97° East 449 517 41,000  Level Albuquerque Center
01:45PM 35.4428 -109.9733 97° East 450 518 41,000  Level Albuquerque Center
01:46PM 35.4250 -109.8033 97° East 452 520 41,000  Level Albuquerque Center
01:48PM 35.4094 -109.6567 97° East 453 521 41,000  Level Albuquerque Center
01:49PM 35.3917 -109.4839 97° East 457 526 41,000  Level Albuquerque Center
01:50PM 35.3756 -109.3344 97° East 461 531 41,000  Level Albuquerque Center
01:51PM 35.3564 -109.1608 98° East 462 532 41,000  Level Albuquerque Center
01:52PM 35.3406 -109.0119 97° East 462 532 41,000  Level Albuquerque Center
01:53PM 35.3239 -108.8622 98° East 464 534 41,000  Level Albuquerque Center
01:54PM 35.3036 -108.6864 98° East 467 537 41,000  Level Albuquerque Center
01:55PM 35.2867 -108.5353 98° East 469 540 41,000  Level Albuquerque Center
01:56PM 35.2669 -108.3561 98° East 474 545 41,000  Level Albuquerque Center
01:57PM 35.2497 -108.2042 98° East 473 544 41,000  Level Albuquerque Center
01:58PM 35.2278 -108.0244 98° East 478 550 41,000  Level Albuquerque Center
01:59PM 35.2094 -107.8703 98° East 479 551 41,000  Level Albuquerque Center
02:00PM 35.1883 -107.6903 98° East 480 552 41,000  Level Albuquerque Center
02:01PM 35.1689 -107.5358 99° East 481 554 41,000  Level Albuquerque Center
02:02PM 35.1461 -107.3528 99° East 489 563 41,000  Level Albuquerque Center
02:03PM 35.1239 -107.1783 99° East 487 560 41,000  Level Albuquerque Center
02:04PM 35.1022 -107.0142 99° East 492 566 41,000  Level Albuquerque Center
02:05PM 35.0806 -106.8456 99° East 491 565 41,000  Level Albuquerque Center
02:06PM 35.0608 -106.6825 98° East 489 563 41,000  Level Albuquerque Center
02:07PM 35.0389 -106.5167 99° East 495 570 41,000  Level Albuquerque Center
02:08PM 35.0161 -106.3528 100° East 494 568 41,000  Level Albuquerque Center
02:09PM 34.9942 -106.1844 99° East 502 578 41,000  Level Albuquerque Center
02:10PM 34.9658 -105.9850 100° East 501 577 41,000  Level Albuquerque Center
02:11PM 34.9433 -105.8186 99° East 501 577 41,000  Level Albuquerque Center
02:12PM 34.9194 -105.6525 100° East 501 577 41,000  Level Albuquerque Center
02:13PM 34.8981 -105.4908 99° East 503 579 41,000  Level Albuquerque Center
02:14PM 34.8694 -105.2917 100° East 506 582 41,000  Level Albuquerque Center
02:15PM 34.8436 -105.1211 100° East 509 586 41,000  Level Albuquerque Center
02:16PM 34.8203 -104.9503 99° East 509 586 41,000  Level Albuquerque Center
02:17PM 34.7956 -104.7792 100° East 511 588 41,000  Level Albuquerque Center
02:18PM 34.7703 -104.6111 100° East 507 583 41,000  Level Albuquerque Center
02:20PM 34.7456 -104.4422 100° East 506 582 41,000  Level Albuquerque Center
02:21PM 34.7206 -104.2717 100° East 510 587 41,000  Level Albuquerque Center
02:22PM 34.6911 -104.0758 100° East 507 583 41,000  Level Albuquerque Center
02:23PM 34.6656 -103.9117 101° East 499 574 41,000  Level Albuquerque Center
02:24PM 34.6394 -103.7478 101° East 494 568 41,000  Level Albuquerque Center
02:25PM 34.6147 -103.5814 100° East 496 571 41,000  Level Albuquerque Center
02:26PM 34.5864 -103.4142 102° East 501 577 41,000  Level Albuquerque Center
02:27PM 34.5606 -103.2439 100° East 507 583 41,000  Level Albuquerque Center
02:28PM 34.5339 -103.0736 101° East 510 587 41,000  Level Albuquerque Center
02:29PM 34.5003 -102.8761 102° East 509 586 41,000  Level Albuquerque Center
02:30PM 34.4842 -102.7242 97° East 512 589 41,000  Level Albuquerque Center
02:31PM 34.4658 -102.5547 97° East 512 589 41,000  Level Albuquerque Center
02:32PM 34.4442 -102.3481 97° East 515 593 41,000  Level Albuquerque Center
02:33PM 34.4256 -102.1744 97° East 520 598 41,000  Level Albuquerque Center
02:34PM 34.4064 -102.0033 98° East 519 597 41,000  Level Albuquerque Center
02:35PM 34.3881 -101.8300 97° East 521 600 41,000  Level Albuquerque Center
02:36PM 34.3694 -101.6561 97° East 523 602 41,000  Level Albuquerque Center
02:37PM 34.3536 -101.5172 98° East 523 602 41,000  Level Fort Worth Center
02:38PM 34.3347 -101.3436 97° East 524 603 41,000  Level Fort Worth Center
02:39PM 34.3108 -101.1378 98° East 520 598 41,000  Level Fort Worth Center
02:40PM 34.2908 -100.9644 98° East 522 601 41,000  Level Fort Worth Center
02:41PM 34.2700 -100.7919 98° East 522 601 41,000  Level Fort Worth Center
02:42PM 34.2497 -100.6167 98° East 526 605 41,000  Level Fort Worth Center
02:43PM 34.2294 -100.4444 98° East 523 602 41,000  Level Fort Worth Center
02:44PM 34.2058 -100.2678 99° East 525 604 41,000  Level Fort Worth Center
02:45PM 34.1561 -100.0683 107° East 517 595 41,000  Level Fort Worth Center
02:46PM 34.1369 -99.8953 98° East 534 615 41,000  Level Fort Worth Center
02:47PM 34.1383 -99.7178 89° East 530 610 41,000 -120 Level Fort Worth Center
02:48PM 34.1403 -99.5392 89° East 530 610 40,800 -900 Descending Fort Worth Center
02:49PM 34.1431 -99.3656 89° East 522 601 39,200 -1,500 Descending Fort Worth Center
02:50PM 34.1489 -99.1953 88° East 511 588 37,800 -1,500 Descending Fort Worth Center
02:51PM 34.1539 -98.9969 88° East 517 595 36,100 -2,040 Descending Fort Worth Center
02:52PM 34.1575 -98.8181 89° East 526 605 33,700 -2,400 Descending Fort Worth Center
02:53PM 34.1081 -98.6636 111° Southeast 506 582 31,200 -2,520 Descending Fort Worth Center
02:54PM 34.0122 -98.5364 132° Southeast 489 563 28,500 -2,460 Descending Fort Worth Center
02:55PM 33.9347 -98.4042 125° Southeast 483 556 26,100 -2,640 Descending Fort Worth Center
02:56PM 33.8547 -98.2433 121° Southeast 477 549 23,100 -2,520 Descending Fort Worth Center
02:58PM 33.7878 -98.1128 122° Southeast 436 502 20,900 -2,100 Descending Fort Worth Center
02:59PM 33.7267 -97.9944 122° Southeast 431 496 18,800 -1,860 Descending Fort Worth Center
03:00PM 33.6628 -97.8697 122° Southeast 420 483 17,100 -1,800 Descending Fort Worth Center
03:01PM 33.6011 -97.7533 122° Southeast 395 455 15,100 -1,980 Descending Fort Worth Center
03:02PM 33.5408 -97.6394 122° Southeast 383 441 13,100 -1,860 Descending Fort Worth Center
03:03PM 33.4889 -97.5408 122° Southeast 354 407 11,300 -1,740 Descending Fort Worth Center
03:04PM 33.4308 -97.4464 126° Southeast 324 373 9,600 -1,560 Descending Fort Worth Center
03:05PM 33.3906 -97.3672 121° Southeast 296 341 8,100 -1,440 Descending Fort Worth Center
03:06PM 33.3697 -97.2733 105° East 292 336 6,600 -1,560 Descending Fort Worth Center
03:07PM 33.3500 -97.2000 108° East 266 306 5,300 -1,500 Descending Dallas / Fort Worth TRACON
03:07PM 33.3333 -97.1333 107° East 253 291 4,100 -720 Descending Dallas / Fort Worth TRACON
03:08PM 33.2833 -97.0833 140° Southeast 224 258 4,000 -540 Descending Dallas / Fort Worth TRACON
03:09PM 33.2500 -97.0333 129° Southeast 202 232 3,100 -540 Descending Dallas / Fort Worth TRACON
03:10PM 33.2000 -96.9833 140° Southeast 203 234 3,000 -120 Descending Dallas / Fort Worth TRACON
03:11PM 33.1783 -96.9656 146° Southeast 203 234 3,000  Level Fort Worth Center
03:12PM 33.1378 -96.9225 138° Southeast 197 227 3,000  Level Fort Worth Center
03:13PM 33.1167 -96.9000 138° Southeast 191 220 3,000  Level Dallas / Fort Worth TRACON
03:14PM 33.0667 -96.8667 151° Southeast 201 231 3,000  Level Dallas / Fort Worth TRACON
03:15PM 33.0167 -96.8333 151° Southeast 182 209 3,000 -120 Level Dallas / Fort Worth TRACON
03:16PM 32.9833 -96.8167 157° South 154 177 2,800 -720 Descending Dallas / Fort Worth TRACON
03:17PM 32.9333 -96.8000 164° South 122 140 1,600 -840 Descending Dallas / Fort Worth TRACON
03:18PM 32.9733 -96.8383 321° Northwest 111 128 700 -600 Descending Fort Worth Center